עמוד ראשי
METAR-TAF:

METAR-TAF

שדות תעופה :

Rafha, ערב הסעודית

קו רוחב: 29-37N, קו אורך: 043-29E, גובה: 449מטר

תצפית מזג אוויר נוכחית

הדו"ח נערך לפני 57דקות, בשעה 04:00 UTC
רוח רגועה
טמפרטורת 32 צלסיוס
לחות 11%
לחץ 1006 hPa
ראות 10 קילומטר או יותר
ללא עננים שבסיסם נמוך מ 5000 רגל או קומולונימבוס

METAR: OERF 200400Z 00000KT CAVOK 32/M02 Q1006 NOSIG

זמן: 07:57 (04:57 UTC)

תחזית

הדו"ח נערך לפני 5 שעות ו 57דקות, בשעה 23:00 UTC
תחזית בתוקף מ 20 ב 00 UTC עד 21 ב 06 UTC
רוח 5קשר מכיוון צפון
ראות 10 קילומטר או יותר
ללא עננים שבסיסם נמוך מ 5000 רגל או קומולונימבוס
יעשה מ
20 ב 06 UTC עד 20 ב 08 UTC
רוח 16קשר מכיוון צפון
ראות: 7000מטר
הסתברות 30% :
זמנית מ -
20 ב 08 UTC עד 20 ב 16 UTC
ראות: 3000מטר
אבק נושב
יעשה מ
20 ב 20 UTC עד 20 ב 22 UTC
רוח 6קשר מכיוון מזרח/צפון-מזרח

TAF: OERF 192300Z 2000/2106 01005KT CAVOK BECMG 2006/2008 35016KT 7000 NSC PROB30 TEMPO 2008/2016 3000 BLDU BECMG 2020/2022 06006KT

תצפיות ותחזיות מזג אוויר לגבי יותר מ- 4,000 שדות תעופה ברחבי העולם. דוחות METAR ו- TAF.

התחנות הזמינות מסומנות בנקודות צהובות ואדומות על גבי המפה.

העבר את העכבר לנקודה הצבעונית על מנת לראות את שם התחנה.

לאחר מכן, לחץ כדי לראות את תוכן ואת תחזיות מזג האוויר.

כדי לשנות את המפה: לחץ על הכפתורים הירוקים עם הפלוס השחור כדי להתקרב; על הכפתור הירוק עם המקף כדי להתרחק; או בחיצים הירוקים למפות סמוכות.


METAR-TAF: